Time;durP1;ratioP1;P1;durP2;ratioP2;P2;SDS_P1;SDS_P2;PMS_P1;PMS_P2;Temp;Humidity;BMP_temperature;BMP_pressure;BME280_temperature;BME280_humidity;BME280_pressure;Samples;Min_cycle;Max_cycle;Signal;HPM_P1;HPM_P2
2022/11/19 00:00:00;;;;;;;1.73;0.80;;;;;;;;;;10507111;28;20024;-72
2022/11/19 00:05:00;;;;;;;0.85;0.65;;;;;;;;;;10509865;28;20419;-73
2022/11/19 00:10:01;;;;;;;0.43;0.40;;;;;;;;;;10514646;28;20027;-74
2022/11/19 00:15:01;;;;;;;1.53;0.60;;;;;;;;;;10532800;28;20056;-72
2022/11/19 00:20:02;;;;;;;1.00;0.80;;;;;;;;;;10532757;28;20031;-75
2022/11/19 00:25:02;;;;;;;1.85;0.47;;;;;;;;;;10514009;28;20039;-74
2022/11/19 00:30:04;;;;;;;0.90;0.55;;;;;;;;;;10532235;28;20024;-73
2022/11/19 00:35:05;;;;;;;1.63;0.50;;;;;;;;;;10513980;28;20035;-75
2022/11/19 00:40:06;;;;;;;3.70;0.93;;;;;;;;;;10513338;28;20023;-75
2022/11/19 00:45:07;;;;;;;0.90;0.30;;;;;;;;;;10500018;28;20113;-76
2022/11/19 00:50:09;;;;;;;0.63;0.20;;;;;;;;;;10489161;28;20115;-77
2022/11/19 00:55:09;;;;;;;1.20;0.40;;;;;;;;;;10513027;28;20023;-82
2022/11/19 01:00:10;;;;;;;0.70;0.40;;;;;;;;;;10512613;28;20451;-75
2022/11/19 01:05:10;;;;;;;1.55;0.57;;;;;;;;;;10517224;28;20114;-77
2022/11/19 01:10:10;;;;;;;0.45;0.30;;;;;;;;;;10513766;28;20026;-72
2022/11/19 01:15:11;;;;;;;0.80;0.30;;;;;;;;;;10530002;28;20082;-75
2022/11/19 01:20:11;;;;;;;0.77;0.38;;;;;;;;;;10511526;28;20027;-74
2022/11/19 01:25:12;;;;;;;0.50;0.38;;;;;;;;;;10529997;28;20034;-78
2022/11/19 01:30:12;;;;;;;0.60;0.50;;;;;;;;;;10511468;28;20479;-80
2022/11/19 01:35:12;;;;;;;0.40;0.40;;;;;;;;;;10510854;28;20024;-73
2022/11/19 01:40:13;;;;;;;0.63;0.40;;;;;;;;;;10510720;28;20032;-75
2022/11/19 01:45:33;;;;;;;2.30;0.40;;;;;;;;;;10518557;28;20020;-71
2022/11/19 01:50:36;;;;;;;2.40;0.60;;;;;;;;;;10553502;28;20032;-72
2022/11/19 01:55:37;;;;;;;0.93;0.47;;;;;;;;;;10532216;28;20035;-72
2022/11/19 02:00:37;;;;;;;0.70;0.43;;;;;;;;;;10480795;28;20025;-75
2022/11/19 02:05:39;;;;;;;1.57;0.90;;;;;;;;;;10512855;28;20027;-72
2022/11/19 02:10:47;;;;;;;1.58;0.70;;;;;;;;;;10509083;28;20032;-78
2022/11/19 02:15:52;;;;;;;0.98;0.55;;;;;;;;;;10509581;28;20060;-76
2022/11/19 02:21:00;;;;;;;1.63;0.77;;;;;;;;;;10509912;28;20036;-76
2022/11/19 02:26:03;;;;;;;1.17;0.60;;;;;;;;;;10526746;28;20052;-74
2022/11/19 02:31:03;;;;;;;0.73;0.57;;;;;;;;;;10509214;28;20031;-74
2022/11/19 02:36:08;;;;;;;1.15;0.93;;;;;;;;;;10509352;28;20038;-73
2022/11/19 02:41:32;;;;;;;1.92;1.08;;;;;;;;;;10526950;28;20394;-74
2022/11/19 02:46:29;;;;;;;0.98;0.88;;;;;;;;;;10526559;28;20027;-78
2022/11/19 02:51:29;;;;;;;3.53;1.10;;;;;;;;;;10526666;28;20024;-81
2022/11/19 02:56:46;;;;;;;4.57;1.60;;;;;;;;;;10508493;28;20384;-74
2022/11/19 03:07:11;;;;;;;3.42;1.55;;;;;;;;;;10511948;28;20028;-74
2022/11/19 03:12:12;;;;;;;1.40;1.00;;;;;;;;;;10502846;28;20036;-74
2022/11/19 03:17:20;;;;;;;3.47;2.10;;;;;;;;;;10507593;28;20028;-74
2022/11/19 03:22:23;;;;;;;5.07;2.10;;;;;;;;;;10482409;28;20420;-74
2022/11/19 03:27:29;;;;;;;2.75;1.45;;;;;;;;;;10502467;28;20055;-74
2022/11/19 03:32:38;;;;;;;4.18;1.80;;;;;;;;;;10507070;28;20788;-74
2022/11/19 03:37:40;;;;;;;3.35;2.17;;;;;;;;;;10510571;28;20038;-74
2022/11/19 03:42:43;;;;;;;3.00;2.33;;;;;;;;;;10516126;28;20025;-77
2022/11/19 03:47:44;;;;;;;5.35;2.55;;;;;;;;;;10515576;28;20024;-78
2022/11/19 03:52:49;;;;;;;3.58;2.10;;;;;;;;;;10514876;28;20452;-73
2022/11/19 03:57:49;;;;;;;3.85;2.33;;;;;;;;;;10515504;28;20035;-75
2022/11/19 04:02:50;;;;;;;4.30;2.88;;;;;;;;;;10515294;28;20396;-76
2022/11/19 04:07:50;;;;;;;4.88;2.30;;;;;;;;;;10515807;28;20388;-75
2022/11/19 04:12:50;;;;;;;4.82;2.50;;;;;;;;;;10542400;28;20470;-74
2022/11/19 04:17:51;;;;;;;6.50;3.13;;;;;;;;;;10557444;28;20075;-71
2022/11/19 04:22:51;;;;;;;4.47;2.67;;;;;;;;;;10553753;28;20101;-75
2022/11/19 04:27:52;;;;;;;4.10;3.05;;;;;;;;;;10529569;28;20055;-75
2022/11/19 04:32:54;;;;;;;5.38;3.25;;;;;;;;;;10492611;28;20764;-79
2022/11/19 04:37:54;;;;;;;7.50;3.95;;;;;;;;;;10482605;28;20494;-76
2022/11/19 04:42:54;;;;;;;4.13;3.50;;;;;;;;;;10488151;28;20468;-76
2022/11/19 04:47:55;;;;;;;8.23;2.80;;;;;;;;;;10527921;28;20144;-74
2022/11/19 04:52:55;;;;;;;6.10;2.90;;;;;;;;;;10511843;28;20059;-75
2022/11/19 04:57:55;;;;;;;4.65;3.28;;;;;;;;;;10512685;28;20028;-71
2022/11/19 05:02:56;;;;;;;7.10;4.22;;;;;;;;;;10487894;28;20020;-75
2022/11/19 05:07:56;;;;;;;4.95;3.67;;;;;;;;;;10506200;28;20024;-75
2022/11/19 05:12:56;;;;;;;6.35;4.03;;;;;;;;;;10512115;28;20055;-78
2022/11/19 05:17:56;;;;;;;5.50;4.37;;;;;;;;;;10513705;28;20452;-74
2022/11/19 05:22:57;;;;;;;11.73;6.28;;;;;;;;;;10512670;28;20438;-73
2022/11/19 05:27:57;;;;;;;12.02;6.18;;;;;;;;;;10491611;28;20372;-73
2022/11/19 05:33:00;;;;;;;17.08;6.15;;;;;;;;;;10489687;28;20552;-74
2022/11/19 05:38:00;;;;;;;10.82;6.75;;;;;;;;;;10510569;28;20027;-76
2022/11/19 05:43:07;;;;;;;13.03;6.57;;;;;;;;;;10469861;28;20031;-74
2022/11/19 05:48:07;;;;;;;16.33;7.68;;;;;;;;;;10492041;28;20020;-79
2022/11/19 05:53:08;;;;;;;16.15;7.25;;;;;;;;;;10492737;28;20419;-75
2022/11/19 05:58:08;;;;;;;17.13;7.60;;;;;;;;;;10510723;28;20024;-77
2022/11/19 06:03:09;;;;;;;13.65;7.43;;;;;;;;;;10510885;28;20028;-77
2022/11/19 06:08:09;;;;;;;10.10;6.93;;;;;;;;;;10510734;28;20430;-74
2022/11/19 06:13:10;;;;;;;18.30;7.50;;;;;;;;;;10504257;28;20542;-75
2022/11/19 06:18:10;;;;;;;13.33;7.20;;;;;;;;;;10478626;28;20028;-77
2022/11/19 06:23:10;;;;;;;12.73;7.30;;;;;;;;;;10450175;28;20108;-79
2022/11/19 06:28:11;;;;;;;14.70;8.05;;;;;;;;;;10485209;28;20021;-75
2022/11/19 06:33:11;;;;;;;12.32;8.13;;;;;;;;;;10467814;28;20467;-74
2022/11/19 06:38:11;;;;;;;17.42;9.77;;;;;;;;;;10491258;28;20035;-75
2022/11/19 06:43:12;;;;;;;22.98;9.20;;;;;;;;;;10474073;28;20017;-75
2022/11/19 06:48:12;;;;;;;17.88;8.40;;;;;;;;;;10465565;28;20024;-74
2022/11/19 06:53:13;;;;;;;20.08;8.32;;;;;;;;;;10461788;28;20134;-75
2022/11/19 06:58:14;;;;;;;16.58;8.85;;;;;;;;;;10438349;28;20499;-81
2022/11/19 07:03:14;;;;;;;19.23;9.57;;;;;;;;;;10472176;28;20021;-74
2022/11/19 07:08:15;;;;;;;15.55;8.82;;;;;;;;;;10456636;28;20032;-75
2022/11/19 07:13:15;;;;;;;16.10;7.72;;;;;;;;;;10444599;28;20056;-76
2022/11/19 07:18:16;;;;;;;18.25;9.13;;;;;;;;;;10459797;28;20041;-80
2022/11/19 07:23:19;;;;;;;17.70;10.03;;;;;;;;;;10441429;28;20021;-78
2022/11/19 07:28:19;;;;;;;16.75;8.90;;;;;;;;;;10474890;28;20265;-81
2022/11/19 07:33:19;;;;;;;12.75;7.70;;;;;;;;;;10473987;28;20018;-73
2022/11/19 07:38:19;;;;;;;13.57;7.15;;;;;;;;;;10462749;28;20028;-85
2022/11/19 07:43:21;;;;;;;10.55;6.22;;;;;;;;;;10464023;28;20013;-81
2022/11/19 07:48:22;;;;;;;12.63;5.85;;;;;;;;;;10441587;28;20017;-78
2022/11/19 07:53:22;;;;;;;10.48;6.22;;;;;;;;;;10444032;28;20527;-74
2022/11/19 07:58:22;;;;;;;17.52;7.03;;;;;;;;;;10468435;28;20431;-75
2022/11/19 08:03:22;;;;;;;8.95;6.10;;;;;;;;;;10452282;28;20571;-73
2022/11/19 08:08:23;;;;;;;12.23;5.88;;;;;;;;;;10447438;28;20028;-74
2022/11/19 08:13:23;;;;;;;7.10;4.57;;;;;;;;;;10460589;28;20040;-78
2022/11/19 08:18:23;;;;;;;11.03;4.77;;;;;;;;;;10494713;28;20036;-77
2022/11/19 08:23:24;;;;;;;11.98;4.97;;;;;;;;;;10493293;28;20298;-79
2022/11/19 08:28:24;;;;;;;11.67;5.40;;;;;;;;;;10492687;28;20566;-73
2022/11/19 08:33:24;;;;;;;10.38;5.80;;;;;;;;;;10473386;28;20415;-75
2022/11/19 08:38:24;;;;;;;11.07;5.97;;;;;;;;;;10492749;28;20356;-75
2022/11/19 08:43:25;;;;;;;9.40;5.68;;;;;;;;;;10491331;28;20486;-77
2022/11/19 08:48:25;;;;;;;8.82;5.05;;;;;;;;;;10485418;28;20068;-72
2022/11/19 08:53:25;;;;;;;6.95;4.47;;;;;;;;;;10492039;28;20028;-77
2022/11/19 08:58:27;;;;;;;16.30;6.82;;;;;;;;;;10504587;28;20035;-73
2022/11/19 09:03:27;;;;;;;8.02;5.43;;;;;;;;;;10488407;28;20078;-77
2022/11/19 09:08:28;;;;;;;13.20;6.05;;;;;;;;;;10495670;28;20454;-76
2022/11/19 09:13:28;;;;;;;10.43;6.57;;;;;;;;;;10493716;28;20079;-73
2022/11/19 09:18:29;;;;;;;10.25;5.30;;;;;;;;;;10447160;28;20479;-76
2022/11/19 09:23:30;;;;;;;8.20;5.32;;;;;;;;;;10451967;28;20016;-73
2022/11/19 09:28:30;;;;;;;10.25;5.55;;;;;;;;;;10464449;28;20576;-75
2022/11/19 09:33:31;;;;;;;5.32;3.50;;;;;;;;;;10465879;28;20039;-75
2022/11/19 09:38:33;;;;;;;7.25;4.68;;;;;;;;;;10464028;28;20033;-72
2022/11/19 09:43:41;;;;;;;6.78;4.40;;;;;;;;;;10452286;28;20119;-73
2022/11/19 09:48:44;;;;;;;9.05;5.43;;;;;;;;;;10440787;28;20060;-75
2022/11/19 09:53:48;;;;;;;9.15;6.18;;;;;;;;;;10439768;28;20045;-75
2022/11/19 09:58:48;;;;;;;9.25;4.97;;;;;;;;;;10445175;28;20067;-75
2022/11/19 10:03:50;;;;;;;8.57;4.38;;;;;;;;;;10421549;28;20039;-74
2022/11/19 10:08:56;;;;;;;3.40;2.35;;;;;;;;;;10632952;22;20227;-73
2022/11/19 10:14:02;;;;;;;5.57;2.83;;;;;;;;;;10591251;27;20049;-78
2022/11/19 10:19:02;;;;;;;5.28;2.70;;;;;;;;;;10578071;27;20084;-79
2022/11/19 10:24:08;;;;;;;3.33;2.25;;;;;;;;;;10590531;27;20486;-74
2022/11/19 10:29:13;;;;;;;5.85;2.42;;;;;;;;;;10572127;27;20015;-73
2022/11/19 10:34:16;;;;;;;3.20;1.85;;;;;;;;;;10583440;27;20034;-74
2022/11/19 10:39:22;;;;;;;3.55;2.08;;;;;;;;;;10586930;27;20069;-72
2022/11/19 10:44:36;;;;;;;5.45;2.00;;;;;;;;;;10591152;27;20101;-73
2022/11/19 10:49:40;;;;;;;3.28;1.83;;;;;;;;;;10609538;27;20031;-74
2022/11/19 10:54:41;;;;;;;4.80;1.80;;;;;;;;;;10592987;28;20027;-75
2022/11/19 10:59:42;;;;;;;7.18;2.38;;;;;;;;;;10589734;28;20019;-76
2022/11/19 11:05:01;;;;;;;13.07;2.42;;;;;;;;;;10596620;28;20030;-72
2022/11/19 11:10:21;;;;;;;4.53;2.30;;;;;;;;;;10586828;28;20052;-77
2022/11/19 11:15:23;;;;;;;4.43;1.95;;;;;;;;;;10593160;28;20104;-74
2022/11/19 11:20:27;;;;;;;7.63;2.72;;;;;;;;;;10596616;28;20037;-74
2022/11/19 11:25:27;;;;;;;6.28;2.65;;;;;;;;;;10590163;28;20020;-74
2022/11/19 11:30:27;;;;;;;12.45;3.40;;;;;;;;;;10573427;28;20027;-73
2022/11/19 11:35:33;;;;;;;5.30;1.70;;;;;;;;;;10573302;28;20019;-71
2022/11/19 11:40:33;;;;;;;4.00;1.92;;;;;;;;;;10581238;28;20068;-73
2022/11/19 11:45:35;;;;;;;4.63;1.75;;;;;;;;;;10575837;28;20027;-73
2022/11/19 11:50:36;;;;;;;9.95;2.00;;;;;;;;;;10575930;28;20059;-75
2022/11/19 11:55:37;;;;;;;3.72;2.60;;;;;;;;;;10585006;28;20118;-77
2022/11/19 12:00:42;;;;;;;4.57;2.30;;;;;;;;;;10585892;27;20038;-74
2022/11/19 12:05:43;;;;;;;5.25;2.53;;;;;;;;;;10602984;27;20046;-74
2022/11/19 12:10:49;;;;;;;3.90;1.95;;;;;;;;;;10594212;27;20147;-75
2022/11/19 12:15:52;;;;;;;3.78;1.70;;;;;;;;;;10604110;27;20027;-76
2022/11/19 12:21:19;;;;;;;8.15;3.53;;;;;;;;;;10593673;27;20026;-72
2022/11/19 12:26:34;;;;;;;8.13;1.85;;;;;;;;;;10589989;27;20102;-73
2022/11/19 12:31:48;;;;;;;6.15;2.40;;;;;;;;;;10569783;27;20027;-74
2022/11/19 12:36:48;;;;;;;8.30;2.50;;;;;;;;;;10571115;27;20075;-72
2022/11/19 12:42:07;;;;;;;8.80;2.80;;;;;;;;;;10615915;27;20023;-73
2022/11/19 12:47:10;;;;;;;4.82;2.03;;;;;;;;;;10597533;27;20027;-73
2022/11/19 12:52:29;;;;;;;10.20;2.47;;;;;;;;;;10617344;27;20088;-74
2022/11/19 12:57:38;;;;;;;4.13;1.60;;;;;;;;;;10594622;27;20034;-73
2022/11/19 13:02:41;;;;;;;4.55;1.95;;;;;;;;;;10592422;27;20022;-73
2022/11/19 13:07:45;;;;;;;6.63;2.28;;;;;;;;;;10594041;27;20062;-74
2022/11/19 13:12:50;;;;;;;7.22;2.40;;;;;;;;;;10591425;27;20020;-72
2022/11/19 13:17:52;;;;;;;7.95;2.78;;;;;;;;;;10582904;27;20023;-75
2022/11/19 13:22:56;;;;;;;9.18;2.83;;;;;;;;;;10594146;27;20087;-73
2022/11/19 13:27:58;;;;;;;13.63;2.78;;;;;;;;;;10591538;27;20478;-74
2022/11/19 13:33:28;;;;;;;5.53;2.63;;;;;;;;;;10591714;27;20406;-73
2022/11/19 13:38:34;;;;;;;7.35;2.92;;;;;;;;;;10591356;27;20035;-73
2022/11/19 13:49:16;;;;;;;5.88;2.80;;;;;;;;;;10388312;28;20041;-72
2022/11/19 13:54:35;;;;;;;7.45;3.20;;;;;;;;;;10539985;27;20038;-74
2022/11/19 13:59:38;;;;;;;9.38;3.58;;;;;;;;;;10578003;27;20042;-73
2022/11/19 14:04:47;;;;;;;10.85;4.32;;;;;;;;;;10573399;27;20430;-72
2022/11/19 14:10:20;;;;;;;9.73;3.78;;;;;;;;;;10585936;27;20458;-72
2022/11/19 14:26:20;;;;;;;7.45;4.22;;;;;;;;;;10587989;27;20019;-75
2022/11/19 14:31:20;;;;;;;14.93;4.63;;;;;;;;;;10566765;27;20019;-74
2022/11/19 14:36:41;;;;;;;10.73;4.60;;;;;;;;;;10587376;27;20850;-74
2022/11/19 14:41:42;;;;;;;8.68;3.42;;;;;;;;;;10572576;27;20035;-75
2022/11/19 14:46:46;;;;;;;5.82;2.78;;;;;;;;;;10580297;27;20038;-74
2022/11/19 14:51:50;;;;;;;5.38;2.58;;;;;;;;;;10571620;27;20571;-72
2022/11/19 14:56:58;;;;;;;6.60;3.20;;;;;;;;;;10592973;27;20031;-72
2022/11/19 15:01:59;;;;;;;10.55;3.95;;;;;;;;;;10580007;27;20023;-73
2022/11/19 15:06:59;;;;;;;12.63;3.90;;;;;;;;;;10570924;28;20052;-72
2022/11/19 15:12:00;;;;;;;6.90;3.53;;;;;;;;;;10579025;28;20027;-73
2022/11/19 15:17:03;;;;;;;3.65;2.13;;;;;;;;;;10571021;27;20058;-76
2022/11/19 15:22:19;;;;;;;3.53;2.30;;;;;;;;;;10575925;27;20432;-74
2022/11/19 15:27:22;;;;;;;3.83;1.75;;;;;;;;;;10575311;28;20027;-78
2022/11/19 15:32:41;;;;;;;4.95;2.15;;;;;;;;;;10571824;27;20116;-74
2022/11/19 15:37:53;;;;;;;8.30;2.00;;;;;;;;;;10599914;27;20041;-74
2022/11/19 15:43:13;;;;;;;5.80;1.92;;;;;;;;;;10587748;27;20031;-72
2022/11/19 15:48:32;;;;;;;4.10;1.90;;;;;;;;;;10580081;27;20039;-74
2022/11/19 15:53:32;;;;;;;2.75;1.63;;;;;;;;;;10579324;27;20053;-73
2022/11/19 15:58:33;;;;;;;4.17;1.80;;;;;;;;;;10604577;27;20590;-73
2022/11/19 16:03:36;;;;;;;5.40;1.73;;;;;;;;;;10600340;27;20273;-75
2022/11/19 16:08:36;;;;;;;4.60;1.63;;;;;;;;;;10566420;27;20094;-74
2022/11/19 16:18:55;;;;;;;2.63;1.52;;;;;;;;;;10588464;27;20187;-74
2022/11/19 16:29:24;;;;;;;11.82;2.15;;;;;;;;;;10600700;27;20026;-73
2022/11/19 16:34:25;;;;;;;3.50;2.00;;;;;;;;;;10579189;27;20027;-73
2022/11/19 16:39:27;;;;;;;4.43;2.40;;;;;;;;;;10598488;27;20518;-72
2022/11/19 16:44:28;;;;;;;8.32;2.78;;;;;;;;;;10573942;27;20387;-74
2022/11/19 16:49:46;;;;;;;5.25;2.22;;;;;;;;;;10580292;27;20023;-75
2022/11/19 16:54:48;;;;;;;4.93;3.00;;;;;;;;;;10584615;27;20176;-74
2022/11/19 16:59:51;;;;;;;9.55;3.47;;;;;;;;;;10597859;27;20034;-74
2022/11/19 17:04:54;;;;;;;16.83;4.00;;;;;;;;;;10581353;27;20027;-72
2022/11/19 17:10:12;;;;;;;3.58;2.08;;;;;;;;;;10550549;28;20603;-74
2022/11/19 17:15:31;;;;;;;6.90;3.72;;;;;;;;;;10553532;28;20031;-74
2022/11/19 17:20:32;;;;;;;13.95;6.68;;;;;;;;;;10548465;28;20481;-72
2022/11/19 17:25:32;;;;;;;13.40;5.88;;;;;;;;;;10550045;28;20028;-74
2022/11/19 17:30:32;;;;;;;10.07;4.20;;;;;;;;;;10554671;28;20028;-73
2022/11/19 17:35:41;;;;;;;26.85;8.75;;;;;;;;;;10538378;28;20020;-72
2022/11/19 17:40:44;;;;;;;11.48;4.25;;;;;;;;;;10551997;28;20024;-74
2022/11/19 17:45:44;;;;;;;9.10;4.78;;;;;;;;;;10548858;28;20100;-72
2022/11/19 17:50:44;;;;;;;15.95;5.13;;;;;;;;;;10548064;28;20076;-72
2022/11/19 17:55:45;;;;;;;18.20;5.35;;;;;;;;;;10533572;28;20111;-74
2022/11/19 18:00:46;;;;;;;11.02;5.25;;;;;;;;;;10553007;28;20027;-73
2022/11/19 18:05:47;;;;;;;10.82;4.93;;;;;;;;;;10560701;28;20031;-73
2022/11/19 18:10:48;;;;;;;17.85;6.25;;;;;;;;;;10593973;27;20383;-73
2022/11/19 18:15:48;;;;;;;8.40;5.32;;;;;;;;;;10575370;27;20575;-72
2022/11/19 18:20:49;;;;;;;11.10;5.00;;;;;;;;;;10572473;27;20030;-74
2022/11/19 18:25:49;;;;;;;11.27;4.00;;;;;;;;;;10578962;27;20418;-74
2022/11/19 18:30:49;;;;;;;7.53;4.30;;;;;;;;;;10585543;27;20026;-75
2022/11/19 18:35:49;;;;;;;10.38;3.83;;;;;;;;;;10592225;27;20023;-74
2022/11/19 18:40:51;;;;;;;9.25;5.25;;;;;;;;;;10587237;27;20046;-73
2022/11/19 18:45:51;;;;;;;8.98;4.47;;;;;;;;;;10592050;27;20490;-73
2022/11/19 18:50:51;;;;;;;14.98;5.20;;;;;;;;;;10584588;27;20031;-75
2022/11/19 18:55:52;;;;;;;14.68;7.43;;;;;;;;;;10579043;27;20395;-74
2022/11/19 19:00:52;;;;;;;12.80;5.80;;;;;;;;;;10569681;27;20062;-76
2022/11/19 19:05:52;;;;;;;14.03;6.73;;;;;;;;;;10585824;28;20390;-71
2022/11/19 19:12:15;;;;;;;14.40;8.15;;;;;;;;;;10589265;27;20042;-74
2022/11/19 19:16:13;;;;;;;18.13;7.28;;;;;;;;;;10598789;27;20542;-79
2022/11/19 19:21:14;;;;;;;17.35;6.63;;;;;;;;;;10587196;27;20076;-74
2022/11/19 19:26:15;;;;;;;12.40;6.63;;;;;;;;;;10588006;27;20018;-72
2022/11/19 19:31:15;;;;;;;10.75;5.80;;;;;;;;;;10579142;27;20030;-73
2022/11/19 19:36:16;;;;;;;14.07;6.20;;;;;;;;;;10595901;27;20342;-74
2022/11/19 19:41:21;;;;;;;14.10;6.50;;;;;;;;;;10588298;27;20291;-74
2022/11/19 19:46:22;;;;;;;14.25;8.32;;;;;;;;;;10577273;27;20015;-75
2022/11/19 19:51:23;;;;;;;16.20;7.20;;;;;;;;;;10575269;27;20023;-76
2022/11/19 19:56:26;;;;;;;17.08;7.35;;;;;;;;;;10605776;27;20027;-75
2022/11/19 20:01:30;;;;;;;19.48;7.70;;;;;;;;;;10588055;27;20106;-74
2022/11/19 20:06:30;;;;;;;15.32;7.75;;;;;;;;;;10591553;27;20333;-76
2022/11/19 20:11:31;;;;;;;18.05;8.15;;;;;;;;;;10594309;27;20084;-77
2022/11/19 20:16:32;;;;;;;16.13;9.60;;;;;;;;;;10604689;27;20020;-77
2022/11/19 20:21:35;;;;;;;15.65;8.65;;;;;;;;;;10600861;27;20031;-75
2022/11/19 20:26:35;;;;;;;13.10;8.35;;;;;;;;;;10581028;27;20030;-75
2022/11/19 20:31:35;;;;;;;13.95;7.95;;;;;;;;;;10589617;27;21884;-76
2022/11/19 20:36:35;;;;;;;12.52;7.82;;;;;;;;;;10571632;27;20628;-76
2022/11/19 20:46:59;;;;;;;14.40;7.97;;;;;;;;;;10603388;27;20019;-75
2022/11/19 20:52:02;;;;;;;22.92;11.20;;;;;;;;;;10593944;27;20424;-81
2022/11/19 20:57:02;;;;;;;15.70;8.57;;;;;;;;;;10578381;27;20019;-75
2022/11/19 21:02:03;;;;;;;15.30;8.17;;;;;;;;;;10571977;27;20651;-76
2022/11/19 21:07:03;;;;;;;19.27;9.30;;;;;;;;;;10584083;27;20540;-76
2022/11/19 21:12:04;;;;;;;14.35;8.68;;;;;;;;;;10583515;27;20277;-74
2022/11/19 21:17:04;;;;;;;19.33;9.60;;;;;;;;;;10585768;27;20047;-75
2022/11/19 21:22:06;;;;;;;19.55;9.90;;;;;;;;;;10587526;27;20102;-74
2022/11/19 21:27:06;;;;;;;17.20;9.18;;;;;;;;;;10599629;27;20028;-75
2022/11/19 21:32:07;;;;;;;18.80;9.90;;;;;;;;;;10576967;27;20024;-75
2022/11/19 21:37:11;;;;;;;16.57;9.60;;;;;;;;;;10612056;27;20076;-76
2022/11/19 21:42:13;;;;;;;12.73;7.90;;;;;;;;;;10589303;27;20035;-77
2022/11/19 21:47:13;;;;;;;13.45;7.43;;;;;;;;;;10581935;27;20112;-75
2022/11/19 21:52:14;;;;;;;13.50;8.33;;;;;;;;;;10596219;27;20398;-75
2022/11/19 21:57:14;;;;;;;15.02;7.07;;;;;;;;;;10588811;27;20281;-75
2022/11/19 22:02:14;;;;;;;14.13;7.97;;;;;;;;;;10580660;27;20090;-79
2022/11/19 22:07:14;;;;;;;11.85;7.32;;;;;;;;;;10579746;27;20043;-76
2022/11/19 22:12:15;;;;;;;15.18;8.15;;;;;;;;;;10596954;27;20028;-76
2022/11/19 22:17:15;;;;;;;11.23;7.13;;;;;;;;;;10591971;27;20028;-76
2022/11/19 22:22:15;;;;;;;11.60;7.55;;;;;;;;;;10572334;27;20031;-76
2022/11/19 22:27:16;;;;;;;11.93;7.53;;;;;;;;;;10600365;27;20024;-75
2022/11/19 22:32:19;;;;;;;14.77;6.72;;;;;;;;;;10594146;27;20469;-79
2022/11/19 22:37:19;;;;;;;13.60;7.20;;;;;;;;;;10576576;27;20529;-75
2022/11/19 22:42:19;;;;;;;13.80;4.95;;;;;;;;;;10577561;27;20176;-75
2022/11/19 22:47:20;;;;;;;11.80;5.60;;;;;;;;;;10578179;27;20027;-76
2022/11/19 22:52:20;;;;;;;14.52;5.75;;;;;;;;;;10576320;27;20091;-75
2022/11/19 22:57:20;;;;;;;16.17;7.60;;;;;;;;;;10574287;27;20058;-75
2022/11/19 23:02:21;;;;;;;19.43;8.90;;;;;;;;;;10576761;28;20027;-79
2022/11/19 23:07:21;;;;;;;16.35;8.38;;;;;;;;;;10566168;28;20107;-76
2022/11/19 23:17:42;;;;;;;16.27;10.00;;;;;;;;;;10594995;28;20031;-76
2022/11/19 23:22:42;;;;;;;16.67;8.85;;;;;;;;;;10590163;28;20027;-76
2022/11/19 23:27:42;;;;;;;17.30;8.93;;;;;;;;;;10597288;28;20076;-76
2022/11/19 23:32:42;;;;;;;15.00;7.88;;;;;;;;;;10590561;28;20091;-74
2022/11/19 23:37:43;;;;;;;17.67;7.68;;;;;;;;;;10581278;28;20079;-73
2022/11/19 23:42:43;;;;;;;11.73;7.18;;;;;;;;;;10580193;28;20537;-79
2022/11/19 23:47:43;;;;;;;12.68;6.30;;;;;;;;;;10579857;28;20034;-77
2022/11/19 23:52:45;;;;;;;17.73;8.45;;;;;;;;;;10581421;28;20050;-78
2022/11/19 23:57:45;;;;;;;10.93;7.47;;;;;;;;;;10591933;27;20034;-79
